createdAt,value
2022-08-11T00:00:16.928Z,32.68
2022-08-11T00:03:20.141Z,33.30
2022-08-11T00:06:42.128Z,33.03
2022-08-11T00:09:43.701Z,33.15
2022-08-11T00:12:56.672Z,33.03
2022-08-11T00:15:59.048Z,33.21
2022-08-11T00:19:02.367Z,33.03
2022-08-11T00:22:06.550Z,33.30
2022-08-11T00:25:11.230Z,33.40
2022-08-11T00:28:31.950Z,33.50
2022-08-11T00:31:35.424Z,33.23
2022-08-11T00:34:38.208Z,33.39
2022-08-11T00:37:44.774Z,33.61
2022-08-11T00:40:57.056Z,33.72
2022-08-11T00:44:14.762Z,34.23
2022-08-11T00:47:31.413Z,34.09
2022-08-11T00:51:12.317Z,33.80
2022-08-11T00:55:14.621Z,34.19
2022-08-11T00:58:24.808Z,33.99
2022-08-11T01:01:37.087Z,34.18
2022-08-11T01:04:56.972Z,34.41
2022-08-11T01:08:21.961Z,34.78
2022-08-11T01:11:55.501Z,34.37
2022-08-11T01:15:56.995Z,34.59
2022-08-11T01:20:45.576Z,34.92
2022-08-11T01:23:31.172Z,34.77
2022-08-11T01:27:18.930Z,35.61
2022-08-11T01:30:44.281Z,35.89
2022-08-11T01:34:07.197Z,35.89
2022-08-11T01:37:17.471Z,35.94
2022-08-11T01:40:30.634Z,35.88
2022-08-11T01:44:22.024Z,35.97
2022-08-11T01:47:54.093Z,35.68
2022-08-11T01:51:19.676Z,36.20
2022-08-11T01:54:51.273Z,35.87
2022-08-11T01:58:13.298Z,36.39
2022-08-11T02:01:45.694Z,35.89
2022-08-11T02:04:54.846Z,36.12
2022-08-11T02:08:05.262Z,36.23
2022-08-11T02:11:31.125Z,36.60
2022-08-11T02:15:12.295Z,36.12
2022-08-11T02:18:18.493Z,36.61
2022-08-11T02:21:46.364Z,36.23
2022-08-11T02:25:18.385Z,36.94
2022-08-11T02:28:28.943Z,36.60
2022-08-11T02:32:23.748Z,36.84
2022-08-11T02:35:27.777Z,36.86
2022-08-11T02:38:45.239Z,36.79
2022-08-11T02:42:34.915Z,37.22
2022-08-11T02:45:47.235Z,36.96
2022-08-11T02:49:22.314Z,36.91
2022-08-11T02:52:45.418Z,37.50
2022-08-11T02:56:22.869Z,37.40
2022-08-11T03:00:00.423Z,37.73
2022-08-11T03:03:17.418Z,37.94
2022-08-11T03:06:35.574Z,37.96
2022-08-11T03:09:47.157Z,37.72
2022-08-11T03:13:34.853Z,38.31
2022-08-11T03:16:54.789Z,39.14
2022-08-11T03:20:23.491Z,39.17
2022-08-11T03:23:31.236Z,39.05
2022-08-11T03:26:56.174Z,39.56
2022-08-11T03:30:26.479Z,39.92
2022-08-11T03:33:52.108Z,40.01
2022-08-11T03:37:16.084Z,39.79
2022-08-11T03:40:39.315Z,39.93
2022-08-11T03:44:34.141Z,40.65
2022-08-11T03:47:55.711Z,40.74
2022-08-11T03:51:25.076Z,40.73
2022-08-11T03:54:45.955Z,40.65
2022-08-11T03:58:02.874Z,40.64
2022-08-11T04:01:35.485Z,41.14
2022-08-11T04:05:07.123Z,41.06
2022-08-11T04:08:34.160Z,40.88
2022-08-11T04:11:54.902Z,40.73
2022-08-11T04:15:45.099Z,41.40
2022-08-11T04:19:21.397Z,41.79
2022-08-11T04:22:48.373Z,41.87
2022-08-11T04:26:34.271Z,42.02
2022-08-11T04:30:09.193Z,42.16
2022-08-11T04:33:52.058Z,42.48
2022-08-11T04:37:34.129Z,42.40
2022-08-11T04:41:08.779Z,42.70
2022-08-11T04:44:45.545Z,42.56
2022-08-11T04:48:40.488Z,41.99
2022-08-11T04:52:12.847Z,42.08
2022-08-11T04:55:40.839Z,41.96
2022-08-11T04:59:07.832Z,42.77
2022-08-11T05:02:28.137Z,42.47
2022-08-11T05:05:57.543Z,42.93
2022-08-11T05:09:04.964Z,42.60
2022-08-11T05:12:34.231Z,42.33
2022-08-11T05:16:05.876Z,42.31
2022-08-11T05:19:26.202Z,41.70
2022-08-11T05:22:49.174Z,41.67
2022-08-11T05:26:47.541Z,42.16
2022-08-11T05:30:00.376Z,41.84
2022-08-11T05:33:33.168Z,41.75
2022-08-11T05:36:46.776Z,41.60
2022-08-11T05:40:14.584Z,40.99
2022-08-11T05:43:35.534Z,40.29
2022-08-11T05:47:01.245Z,40.51
2022-08-11T05:50:32.740Z,39.86
2022-08-11T05:53:53.513Z,39.69
2022-08-11T05:56:58.566Z,39.56
2022-08-11T06:00:10.320Z,39.27
2022-08-11T06:03:22.802Z,39.42
2022-08-11T06:06:27.017Z,39.22
2022-08-11T06:09:37.197Z,38.33
2022-08-11T06:12:40.750Z,38.66
2022-08-11T06:15:48.067Z,38.75
2022-08-11T06:18:49.868Z,38.64
2022-08-11T06:21:53.059Z,38.47
2022-08-11T06:24:59.851Z,38.49
2022-08-11T06:28:05.267Z,38.09
2022-08-11T06:31:24.052Z,37.93
2022-08-11T06:34:39.022Z,37.85
2022-08-11T06:38:11.952Z,37.82
2022-08-11T06:41:30.498Z,37.86
2022-08-11T06:44:44.176Z,37.95
2022-08-11T06:47:47.690Z,37.39
2022-08-11T06:51:14.224Z,37.85
2022-08-11T06:54:15.867Z,37.63
2022-08-11T06:57:37.567Z,37.28
2022-08-11T07:00:39.477Z,37.06
2022-08-11T07:03:47.309Z,37.35
2022-08-11T07:07:19.999Z,37.51
2022-08-11T07:10:51.863Z,36.99
2022-08-11T07:14:17.934Z,36.57
2022-08-11T07:17:24.920Z,36.64
2022-08-11T07:21:05.223Z,36.77
2022-08-11T07:25:01.871Z,36.59
2022-08-11T07:28:30.532Z,36.54
2022-08-11T07:31:37.101Z,36.27
2022-08-11T07:34:42.905Z,36.10
2022-08-11T07:37:50.782Z,36.44
2022-08-11T07:41:03.092Z,36.19
2022-08-11T07:44:11.563Z,35.88
2022-08-11T07:47:33.064Z,36.08
2022-08-11T07:50:56.249Z,35.69
2022-08-11T07:54:07.587Z,35.64
2022-08-11T07:58:02.221Z,35.45
2022-08-11T08:01:22.362Z,35.29
2022-08-11T08:04:46.804Z,34.89
2022-08-11T08:08:07.513Z,35.10
2022-08-11T08:11:27.826Z,34.85
2022-08-11T08:14:48.561Z,34.74
2022-08-11T08:18:20.450Z,34.35
2022-08-11T08:21:16.763Z,34.25
2022-08-11T08:24:20.996Z,34.65
2022-08-11T08:27:25.854Z,33.93
2022-08-11T08:30:48.252Z,34.11
2022-08-11T08:33:50.008Z,34.33
2022-08-11T08:36:51.896Z,33.65
2022-08-11T08:39:53.980Z,33.64
2022-08-11T08:42:58.324Z,33.59
2022-08-11T08:46:00.455Z,33.91
2022-08-11T08:49:03.811Z,33.63
2022-08-11T08:52:21.064Z,33.29
2022-08-11T08:55:30.841Z,33.05
2022-08-11T08:58:36.288Z,33.12
2022-08-11T09:01:50.888Z,33.58
2022-08-11T09:04:53.232Z,32.81
2022-08-11T09:07:58.128Z,32.84
2022-08-11T09:11:21.396Z,32.79
2022-08-11T09:14:50.336Z,32.69
2022-08-11T09:18:03.548Z,32.31
2022-08-11T09:21:05.689Z,31.80
2022-08-11T09:24:26.581Z,31.56
2022-08-11T09:27:28.486Z,30.79
2022-08-11T09:30:30.577Z,30.91
2022-08-11T09:33:33.361Z,30.53
2022-08-11T09:36:53.894Z,30.54
2022-08-11T09:40:15.308Z,29.99
2022-08-11T09:43:37.982Z,29.98
2022-08-11T09:46:41.515Z,29.61
2022-08-11T09:49:45.199Z,29.18
2022-08-11T09:53:16.843Z,28.42
2022-08-11T09:56:40.945Z,29.04
2022-08-11T09:59:42.485Z,28.27
2022-08-11T10:02:47.153Z,28.15
2022-08-11T10:06:11.239Z,27.57
2022-08-11T10:09:17.869Z,26.97
2022-08-11T10:12:37.190Z,26.99
2022-08-11T10:16:14.820Z,26.94
2022-08-11T10:19:06.358Z,26.61
2022-08-11T10:22:26.872Z,25.23
2022-08-11T10:25:47.572Z,25.89
2022-08-11T10:29:10.022Z,25.79
2022-08-11T10:32:31.629Z,25.91
2022-08-11T10:35:33.544Z,26.12
2022-08-11T10:38:35.778Z,26.58
2022-08-11T10:42:06.555Z,25.80
2022-08-11T10:45:28.415Z,26.48
2022-08-11T10:48:34.929Z,26.39
2022-08-11T10:51:58.604Z,25.79
2022-08-11T10:55:18.702Z,26.04
2022-08-11T10:58:40.236Z,26.44
2022-08-11T11:01:44.075Z,25.52
2022-08-11T11:05:09.160Z,25.22
2022-08-11T11:08:33.836Z,25.22
2022-08-11T11:11:56.822Z,25.02
2022-08-11T11:15:19.760Z,24.46
2022-08-11T11:18:25.148Z,24.37
2022-08-11T11:21:27.275Z,23.60
2022-08-11T11:24:48.221Z,23.77
2022-08-11T11:28:21.372Z,24.34
2022-08-11T11:31:40.976Z,23.93
2022-08-11T11:35:11.016Z,23.73
2022-08-11T11:38:14.114Z,23.27
2022-08-11T11:41:25.113Z,24.00
2022-08-11T11:44:27.644Z,23.65
2022-08-11T11:47:31.161Z,23.25
2022-08-11T11:50:37.195Z,22.82
2022-08-11T11:53:38.653Z,22.94
2022-08-11T11:56:42.548Z,22.66
2022-08-11T12:00:03.349Z,22.41
2022-08-11T12:03:12.012Z,22.00
2022-08-11T12:06:14.477Z,21.62
2022-08-11T12:09:18.355Z,22.25
2022-08-11T12:12:39.705Z,21.75
2022-08-11T12:16:23.777Z,21.89
2022-08-11T12:19:08.409Z,21.68
2022-08-11T12:22:28.990Z,21.81
2022-08-11T12:26:04.438Z,21.64
2022-08-11T12:29:12.490Z,21.64
2022-08-11T12:32:14.552Z,21.69
2022-08-11T12:35:16.545Z,21.36
2022-08-11T12:38:26.046Z,21.47
2022-08-11T12:41:51.685Z,21.64
2022-08-11T12:45:22.252Z,21.52
2022-08-11T12:49:00.971Z,21.26
2022-08-11T12:52:12.734Z,21.47
2022-08-11T12:55:41.782Z,20.90
2022-08-11T12:58:45.372Z,20.77
2022-08-11T13:02:06.470Z,20.74
2022-08-11T13:05:12.611Z,20.91
2022-08-11T13:08:17.310Z,21.30
2022-08-11T13:11:56.555Z,21.22
2022-08-11T13:15:00.477Z,21.12
2022-08-11T13:18:04.774Z,20.41
2022-08-11T13:21:06.404Z,20.02
2022-08-11T13:24:08.113Z,20.44
2022-08-11T13:27:12.317Z,20.01
2022-08-11T13:30:37.044Z,19.91
2022-08-11T13:33:43.078Z,19.87
2022-08-11T13:36:45.787Z,20.32
2022-08-11T13:39:47.678Z,20.33
2022-08-11T13:42:51.083Z,20.13
2022-08-11T13:46:14.020Z,20.20
2022-08-11T13:49:17.162Z,20.12
2022-08-11T13:52:19.328Z,20.46
2022-08-11T13:55:45.526Z,20.42
2022-08-11T13:58:45.719Z,19.41
2022-08-11T14:02:22.744Z,19.49
2022-08-11T14:05:28.932Z,19.35
2022-08-11T14:08:38.436Z,19.67
2022-08-11T14:12:19.951Z,19.33
2022-08-11T14:15:31.908Z,19.41
2022-08-11T14:18:34.412Z,19.42
2022-08-11T14:21:56.831Z,19.72
2022-08-11T14:24:58.740Z,19.62
2022-08-11T14:28:32.503Z,19.60
2022-08-11T14:31:25.363Z,19.47
2022-08-11T14:34:29.361Z,19.25
2022-08-11T14:37:30.918Z,18.95
2022-08-11T14:40:51.087Z,18.89
2022-08-11T14:44:14.841Z,18.91
2022-08-11T14:47:22.900Z,18.92
2022-08-11T14:50:28.908Z,19.07
2022-08-11T14:53:31.613Z,19.04
2022-08-11T14:56:37.046Z,18.75
2022-08-11T14:59:39.018Z,18.98
2022-08-11T15:03:00.648Z,19.02
2022-08-11T15:06:05.009Z,19.09
2022-08-11T15:09:09.006Z,19.20
2022-08-11T15:12:33.260Z,18.71
2022-08-11T15:16:10.656Z,19.23
2022-08-11T15:19:14.496Z,18.95
2022-08-11T15:22:35.017Z,18.39
2022-08-11T15:25:38.913Z,18.97
2022-08-11T15:29:04.591Z,18.67
2022-08-11T15:32:22.725Z,19.04
2022-08-11T15:35:44.424Z,19.19
2022-08-11T15:39:03.732Z,19.02
2022-08-11T15:42:33.673Z,19.10
2022-08-11T15:45:49.053Z,18.99
2022-08-11T15:48:57.879Z,18.60
2022-08-11T15:52:07.967Z,18.56
2022-08-11T15:55:10.399Z,18.37
2022-08-11T15:58:32.065Z,18.40
2022-08-11T16:01:55.412Z,18.38
2022-08-11T16:04:59.675Z,18.75
2022-08-11T16:08:02.468Z,18.82
2022-08-11T16:11:08.781Z,18.64
2022-08-11T16:14:31.844Z,18.30
2022-08-11T16:17:37.858Z,18.07
2022-08-11T16:20:39.565Z,18.23
2022-08-11T16:23:44.811Z,18.36
2022-08-11T16:27:08.004Z,18.22
2022-08-11T16:30:10.604Z,18.20
2022-08-11T16:33:48.104Z,17.93
2022-08-11T16:36:54.124Z,18.35
2022-08-11T16:39:55.775Z,18.75
2022-08-11T16:43:17.141Z,18.58
2022-08-11T16:46:39.005Z,19.13
2022-08-11T16:49:53.246Z,19.29
2022-08-11T16:52:54.776Z,19.16
2022-08-11T16:55:59.972Z,19.20
2022-08-11T16:59:18.171Z,19.19
2022-08-11T17:02:41.528Z,19.85
2022-08-11T17:06:11.158Z,19.71
2022-08-11T17:09:37.939Z,19.78
2022-08-11T17:13:00.198Z,19.93
2022-08-11T17:16:07.042Z,19.96
2022-08-11T17:19:16.960Z,19.98
2022-08-11T17:22:38.500Z,19.99
2022-08-11T17:26:03.543Z,20.43
2022-08-11T17:29:04.722Z,20.47
2022-08-11T17:32:56.383Z,20.66
2022-08-11T17:35:59.877Z,20.78
2022-08-11T17:39:02.225Z,20.72
2022-08-11T17:42:23.168Z,20.92
2022-08-11T17:46:00.512Z,20.79
2022-08-11T17:49:03.717Z,21.01
2022-08-11T17:52:26.073Z,21.04
2022-08-11T17:55:51.751Z,21.03
2022-08-11T17:59:15.363Z,21.44
2022-08-11T18:02:45.991Z,21.59
2022-08-11T18:05:49.195Z,21.83
2022-08-11T18:09:09.938Z,21.81
2022-08-11T18:12:30.966Z,21.82
2022-08-11T18:15:55.596Z,22.07
2022-08-11T18:19:16.697Z,22.24
2022-08-11T18:22:42.104Z,22.27
2022-08-11T18:26:07.354Z,22.18
2022-08-11T18:29:29.923Z,22.46
2022-08-11T18:32:59.162Z,22.66
2022-08-11T18:36:34.036Z,22.92
2022-08-11T18:40:00.923Z,23.29
2022-08-11T18:43:27.260Z,23.11
2022-08-11T18:46:52.698Z,23.77
2022-08-11T18:50:21.089Z,23.89
2022-08-11T18:54:00.356Z,23.91
2022-08-11T18:57:24.224Z,24.32
2022-08-11T19:00:46.103Z,24.26
2022-08-11T19:04:10.858Z,24.52
2022-08-11T19:07:32.984Z,24.83
2022-08-11T19:10:53.900Z,24.66
2022-08-11T19:14:14.780Z,25.16
2022-08-11T19:17:43.563Z,25.26
2022-08-11T19:21:06.754Z,26.29
2022-08-11T19:24:27.708Z,26.74
2022-08-11T19:27:48.953Z,26.63
2022-08-11T19:31:09.800Z,26.82
2022-08-11T19:34:32.704Z,26.92
2022-08-11T19:37:54.665Z,27.23
2022-08-11T19:41:18.470Z,27.14
2022-08-11T19:44:58.770Z,27.73
2022-08-11T19:48:31.798Z,28.29
2022-08-11T19:51:54.507Z,28.47
2022-08-11T19:55:15.583Z,28.50
2022-08-11T19:58:36.135Z,28.47
2022-08-11T20:02:01.682Z,29.31
2022-08-11T20:05:34.670Z,29.26
2022-08-11T20:09:00.126Z,29.32
2022-08-11T20:12:23.135Z,29.55
2022-08-11T20:15:46.034Z,29.84
2022-08-11T20:19:09.231Z,30.28
2022-08-11T20:22:30.969Z,30.39
2022-08-11T20:25:55.797Z,30.49
2022-08-11T20:29:26.144Z,31.22
2022-08-11T20:32:46.913Z,31.25
2022-08-11T20:36:08.158Z,31.44
2022-08-11T20:39:29.467Z,31.71
2022-08-11T20:42:52.148Z,31.81
2022-08-11T20:46:12.518Z,32.02
2022-08-11T20:49:44.923Z,32.45
2022-08-11T20:53:11.697Z,33.27
2022-08-11T20:56:33.210Z,33.06
2022-08-11T20:59:56.874Z,33.28
2022-08-11T21:03:35.530Z,33.35
2022-08-11T21:06:57.326Z,33.62
2022-08-11T21:10:23.215Z,33.60
2022-08-11T21:13:51.486Z,33.55
2022-08-11T21:17:27.784Z,33.80
2022-08-11T21:20:50.388Z,34.23
2022-08-11T21:24:12.866Z,33.87
2022-08-11T21:27:36.900Z,34.34
2022-08-11T21:30:58.374Z,34.19
2022-08-11T21:34:19.715Z,34.50
2022-08-11T21:37:39.675Z,34.65
2022-08-11T21:41:01.621Z,35.15
2022-08-11T21:44:24.864Z,34.91
2022-08-11T21:47:45.623Z,35.47
2022-08-11T21:51:05.384Z,35.84
2022-08-11T21:54:26.257Z,36.18
2022-08-11T21:57:50.208Z,36.21
2022-08-11T22:01:11.068Z,36.68
2022-08-11T22:04:34.955Z,37.01
2022-08-11T22:07:56.858Z,36.76
2022-08-11T22:11:31.802Z,37.08
2022-08-11T22:14:52.913Z,36.89
2022-08-11T22:18:12.650Z,37.38
2022-08-11T22:22:01.216Z,37.50
2022-08-11T22:25:16.605Z,37.69
2022-08-11T22:28:38.854Z,38.16
2022-08-11T22:32:00.142Z,38.42
2022-08-11T22:35:22.345Z,38.21
2022-08-11T22:38:44.108Z,38.55
2022-08-11T22:42:04.963Z,38.35
2022-08-11T22:45:25.265Z,38.43
2022-08-11T22:48:48.247Z,38.59
2022-08-11T22:52:09.145Z,38.20
2022-08-11T22:55:29.387Z,37.01
2022-08-11T22:58:50.430Z,36.89
2022-08-11T23:02:11.852Z,36.59
2022-08-11T23:05:34.008Z,36.33
2022-08-11T23:08:55.882Z,36.15
2022-08-11T23:12:16.852Z,35.96
2022-08-11T23:15:39.176Z,36.08
2022-08-11T23:19:01.357Z,35.97
2022-08-11T23:22:22.183Z,35.48
2022-08-11T23:25:43.797Z,35.49
2022-08-11T23:29:06.100Z,34.99
2022-08-11T23:32:26.549Z,35.13
2022-08-11T23:35:54.938Z,35.41
2022-08-11T23:39:19.467Z,35.65
2022-08-11T23:42:39.418Z,35.27
2022-08-11T23:46:01.133Z,35.39
2022-08-11T23:49:22.350Z,35.40
2022-08-11T23:52:43.581Z,35.41
2022-08-11T23:56:04.941Z,35.50
2022-08-11T23:59:25.312Z,35.25
